Time;durP1;ratioP1;P1;durP2;ratioP2;P2;SDS_P1;SDS_P2;PMS_P1;PMS_P2;Temp;Humidity;BMP_temperature;BMP_pressure;BME280_temperature;BME280_humidity;BME280_pressure;Samples;Min_cycle;Max_cycle;Signal;HPM_P1;HPM_P2
2021/06/17 00:00:48;;;;;;;6.00;4.50;;;;;;;19.32;75.49;95654.78;4373269;32;20219;-76
2021/06/17 00:03:15;;;;;;;7.87;4.30;;;;;;;19.14;77.10;95654.81;4372980;32;20220;-76
2021/06/17 00:05:42;;;;;;;6.25;4.43;;;;;;;19.13;77.24;95654.94;4373056;32;20277;-76
2021/06/17 00:08:08;;;;;;;7.07;4.53;;;;;;;19.15;77.42;95660.88;4373193;32;20238;-76
2021/06/17 00:10:36;;;;;;;6.07;4.60;;;;;;;19.19;76.99;95656.97;4359616;32;20241;-76
2021/06/17 00:13:05;;;;;;;6.87;4.05;;;;;;;19.28;76.17;95651.66;4359355;32;20310;-76
2021/06/17 00:15:33;;;;;;;6.32;4.57;;;;;;;19.28;76.37;95656.06;4372994;32;20222;-76
2021/06/17 00:17:59;;;;;;;7.75;4.85;;;;;;;19.35;75.54;95651.84;4373375;32;20215;-76
2021/06/17 00:20:26;;;;;;;6.20;4.85;;;;;;;19.37;75.24;95643.81;4373192;32;20261;-76
2021/06/17 00:22:53;;;;;;;10.25;4.62;;;;;;;19.09;76.93;95652.62;4359838;32;20215;-76
2021/06/17 00:25:18;;;;;;;6.07;4.80;;;;;;;19.03;77.21;95650.63;4372921;32;20623;-76
2021/06/17 00:27:44;;;;;;;4.55;4.07;;;;;;;19.01;77.46;95655.19;4372858;32;20237;-76
2021/06/17 00:30:11;;;;;;;6.23;4.37;;;;;;;19.06;77.11;95647.69;4372847;32;20208;-76
2021/06/17 00:32:37;;;;;;;5.00;3.90;;;;;;;19.10;76.48;95658.72;4373035;32;20290;-76
2021/06/17 00:35:04;;;;;;;7.32;4.37;;;;;;;19.07;76.87;95656.41;4359110;32;20246;-76
2021/06/17 00:37:31;;;;;;;5.70;4.18;;;;;;;18.96;76.83;95648.75;4373983;32;20243;-76
2021/06/17 00:39:58;;;;;;;5.90;4.18;;;;;;;18.93;77.45;95642.00;4376085;32;20299;-76
2021/06/17 00:42:24;;;;;;;8.60;4.25;;;;;;;18.84;78.07;95638.47;4373774;32;20220;-75
2021/06/17 00:44:49;;;;;;;4.60;4.03;;;;;;;18.75;78.89;95639.38;4374311;32;20215;-75
2021/06/17 00:47:15;;;;;;;4.00;3.60;;;;;;;18.72;77.99;95630.97;4372735;32;20246;-76
2021/06/17 00:49:40;;;;;;;5.13;3.63;;;;;;;18.63;78.44;95632.66;4359615;32;20277;-76
2021/06/17 00:52:07;;;;;;;6.80;4.00;;;;;;;18.65;78.58;95628.13;4372814;32;20579;-75
2021/06/17 00:54:34;;;;;;;4.75;3.70;;;;;;;18.78;76.69;95622.50;4359439;32;20218;-75
2021/06/17 00:57:01;;;;;;;6.07;4.28;;;;;;;18.55;78.24;95612.44;4358621;32;20253;-75
2021/06/17 00:59:27;;;;;;;7.15;4.28;;;;;;;18.50;77.68;95619.94;4359160;32;20258;-76
2021/06/17 01:01:52;;;;;;;5.50;4.17;;;;;;;18.44;78.26;95617.06;4372778;32;20693;-75
2021/06/17 01:04:18;;;;;;;5.00;4.05;;;;;;;18.46;78.40;95621.19;4372518;32;20220;-75
2021/06/17 01:06:44;;;;;;;5.90;4.27;;;;;;;18.50;78.66;95614.69;4372451;32;20658;-76
2021/06/17 01:09:15;;;;;;;4.60;4.07;;;;;;;18.57;78.77;95614.91;4358857;32;20207;-76
2021/06/17 01:11:51;;;;;;;5.05;3.90;;;;;;;18.65;78.38;95622.00;4358770;32;20250;-75
2021/06/17 01:14:23;;;;;;;4.47;4.05;;;;;;;18.69;78.19;95618.13;4375256;32;20234;-76
2021/06/17 01:16:54;;;;;;;4.68;3.78;;;;;;;18.68;78.24;95612.06;4377260;32;20270;-75
2021/06/17 01:19:31;;;;;;;5.87;3.80;;;;;;;18.62;78.42;95616.13;4377571;32;20203;-76
2021/06/17 01:22:07;;;;;;;4.97;3.83;;;;;;;18.61;78.71;95606.59;4363791;32;20219;-76
2021/06/17 01:24:55;;;;;;;3.90;3.45;;;;;;;18.61;78.84;95609.22;4377515;32;20242;-76
2021/06/17 01:27:52;;;;;;;4.47;3.78;;;;;;;18.60;78.78;95609.34;4376798;32;20218;-76
2021/06/17 01:30:19;;;;;;;8.55;3.75;;;;;;;18.66;77.32;95600.09;4357088;32;20639;-76
2021/06/17 01:32:48;;;;;;;6.03;3.80;;;;;;;18.53;76.93;95597.81;4377384;32;20253;-76
2021/06/17 01:35:16;;;;;;;4.72;3.83;;;;;;;18.33;77.20;95594.50;4377149;32;20211;-76
2021/06/17 01:37:43;;;;;;;4.77;3.70;;;;;;;18.16;78.99;95592.69;4377619;32;20238;-76
2021/06/17 01:40:10;;;;;;;5.45;3.87;;;;;;;18.14;78.41;95601.53;4377408;32;20285;-76
2021/06/17 01:42:38;;;;;;;4.65;3.53;;;;;;;18.31;76.14;95599.06;4363442;32;20249;-76
2021/06/17 01:45:07;;;;;;;5.20;3.83;;;;;;;18.16;76.88;95600.53;4377343;32;20341;-75
2021/06/17 01:47:33;;;;;;;5.43;3.90;;;;;;;17.98;77.80;95593.47;4377336;32;20290;-76
2021/06/17 01:50:00;;;;;;;6.53;4.40;;;;;;;17.67;80.15;95600.75;4363814;32;20556;-75
2021/06/17 01:52:29;;;;;;;4.70;4.20;;;;;;;17.54;80.98;95597.63;4363556;32;20245;-76
2021/06/17 01:54:57;;;;;;;4.85;3.85;;;;;;;17.55;82.25;95597.50;4377519;32;20237;-76
2021/06/17 01:57:24;;;;;;;8.18;3.78;;;;;;;17.66;80.76;95589.44;4363037;32;20265;-76
2021/06/17 01:59:52;;;;;;;4.37;3.95;;;;;;;17.73;79.66;95594.94;4363587;32;20250;-76
2021/06/17 02:02:19;;;;;;;6.43;4.15;;;;;;;17.59;80.14;95598.84;4363441;32;20231;-76
2021/06/17 02:04:47;;;;;;;5.03;4.07;;;;;;;17.46;82.06;95594.87;4363599;32;20400;-76
2021/06/17 02:07:14;;;;;;;6.70;4.25;;;;;;;17.45;81.83;95591.44;4376645;32;20250;-76
2021/06/17 02:09:40;;;;;;;4.90;4.05;;;;;;;17.46;80.84;95595.72;4363401;32;20281;-76
2021/06/17 02:12:06;;;;;;;4.47;3.80;;;;;;;17.49;80.92;95594.63;4363528;32;20623;-75
2021/06/17 02:14:33;;;;;;;7.40;4.10;;;;;;;17.34;82.22;95595.06;4376948;32;20223;-75
2021/06/17 02:17:02;;;;;;;7.05;4.18;;;;;;;17.29;82.63;95594.69;4362837;32;20500;-76
2021/06/17 02:19:32;;;;;;;7.60;4.30;;;;;;;17.25;83.28;95595.09;4377211;32;20219;-76
2021/06/17 02:22:00;;;;;;;6.25;4.28;;;;;;;17.27;83.57;95601.00;4376821;32;20211;-76
2021/06/17 02:24:27;;;;;;;4.85;4.35;;;;;;;17.28;83.55;95600.88;4363122;32;20635;-76
2021/06/17 02:26:57;;;;;;;6.30;3.80;;;;;;;17.36;83.35;95606.22;4373939;32;20290;-76
2021/06/17 02:29:24;;;;;;;4.57;3.75;;;;;;;17.44;83.42;95604.69;4374629;32;20258;-76
2021/06/17 02:31:50;;;;;;;6.65;4.20;;;;;;;17.48;83.34;95606.88;4360892;32;20253;-76
2021/06/17 02:34:18;;;;;;;6.60;4.20;;;;;;;17.51;83.28;95614.47;4374710;32;20218;-76
2021/06/17 02:36:47;;;;;;;3.97;3.65;;;;;;;17.51;82.59;95611.84;4373730;32;20219;-76
2021/06/17 02:39:17;;;;;;;3.80;3.50;;;;;;;17.50;82.40;95610.19;4374201;32;20258;-76
2021/06/17 02:41:47;;;;;;;4.20;3.63;;;;;;;17.49;80.04;95610.31;4374539;32;20266;-76
2021/06/17 02:44:12;;;;;;;5.03;3.80;;;;;;;17.26;80.67;95612.44;4374251;32;20245;-76
2021/06/17 02:46:38;;;;;;;4.40;3.60;;;;;;;17.12;80.92;95614.53;4374115;32;20212;-76
2021/06/17 02:49:06;;;;;;;5.27;3.70;;;;;;;17.01;80.83;95612.06;4374711;32;20300;-75
2021/06/17 02:51:31;;;;;;;4.45;3.87;;;;;;;16.97;81.29;95618.53;4374208;32;20227;-76
2021/06/17 02:53:58;;;;;;;5.27;4.43;;;;;;;17.02;79.80;95616.34;4374301;32;20238;-76
2021/06/17 02:56:28;;;;;;;6.77;4.67;;;;;;;17.01;80.21;95619.91;4374024;32;20211;-76
2021/06/17 02:59:05;;;;;;;6.20;4.50;;;;;;;16.85;82.40;95617.03;4360642;32;20211;-76
2021/06/17 03:01:38;;;;;;;5.63;4.43;;;;;;;16.80;83.31;95608.81;4374466;32;20257;-76
2021/06/17 03:04:08;;;;;;;6.40;4.62;;;;;;;16.77;83.88;95607.28;4360295;32;20258;-76
2021/06/17 03:06:38;;;;;;;6.18;4.60;;;;;;;16.77;84.21;95609.06;4373510;32;20524;-76
2021/06/17 03:09:08;;;;;;;5.12;4.43;;;;;;;16.72;85.48;95606.00;4374229;32;20289;-76
2021/06/17 03:11:36;;;;;;;6.50;4.97;;;;;;;16.73;85.41;95605.06;4360437;32;20257;-76
2021/06/17 03:14:05;;;;;;;7.57;4.60;;;;;;;16.83;85.31;95617.16;4373829;32;20223;-76
2021/06/17 03:16:35;;;;;;;6.10;4.43;;;;;;;16.93;84.58;95618.00;4373134;32;20251;-76
2021/06/17 03:19:01;;;;;;;5.50;4.62;;;;;;;16.95;85.29;95617.06;4373985;32;20303;-76
2021/06/17 03:21:29;;;;;;;4.87;4.10;;;;;;;17.03;84.52;95623.22;4360238;32;20211;-76
2021/06/17 03:23:56;;;;;;;8.65;4.60;;;;;;;17.05;83.69;95623.09;4360160;32;20618;-75
2021/06/17 03:26:25;;;;;;;5.43;4.43;;;;;;;17.04;81.72;95627.50;4373386;32;20674;-76
2021/06/17 03:28:52;;;;;;;5.37;4.20;;;;;;;16.93;82.49;95632.88;4373465;32;20656;-76
2021/06/17 03:31:18;;;;;;;7.45;4.43;;;;;;;16.87;83.00;95633.41;4360153;32;20215;-75
2021/06/17 03:33:49;;;;;;;6.03;4.32;;;;;;;16.78;83.98;95631.63;4373842;32;20321;-76
2021/06/17 03:36:15;;;;;;;5.43;4.05;;;;;;;16.79;84.21;95636.72;4374266;32;20253;-76
2021/06/17 03:38:43;;;;;;;6.73;4.67;;;;;;;16.78;84.62;95636.88;4373538;32;20220;-76
2021/06/17 03:41:10;;;;;;;4.90;4.40;;;;;;;16.76;84.87;95631.78;4360875;32;20318;-74
2021/06/17 03:43:38;;;;;;;5.70;4.68;;;;;;;16.84;84.70;95641.56;4355906;33;20244;-73
2021/06/17 03:46:04;;;;;;;4.60;4.10;;;;;;;16.84;85.14;95637.16;4358194;32;20629;-75
2021/06/17 03:48:32;;;;;;;6.85;4.43;;;;;;;16.86;85.73;95643.06;4369450;32;20213;-76
2021/06/17 03:51:00;;;;;;;8.32;4.10;;;;;;;16.83;85.80;95640.72;4369779;32;20225;-74
2021/06/17 03:53:26;;;;;;;6.37;3.90;;;;;;;16.77;86.27;95635.22;4369353;32;20247;-76
2021/06/17 03:55:53;;;;;;;4.32;3.90;;;;;;;16.93;84.68;95631.06;4369198;32;20233;-75
2021/06/17 03:58:21;;;;;;;5.03;4.05;;;;;;;17.21;82.69;95638.22;4357970;33;20572;-75
2021/06/17 04:00:48;;;;;;;5.65;4.05;;;;;;;16.94;84.83;95634.50;4358392;32;20301;-76
2021/06/17 04:03:14;;;;;;;5.28;4.00;;;;;;;16.88;85.88;95641.13;4369488;32;20255;-75
2021/06/17 04:05:40;;;;;;;6.30;4.57;;;;;;;16.89;86.24;95637.56;4357880;33;20533;-75
2021/06/17 04:08:10;;;;;;;4.30;3.90;;;;;;;17.00;85.63;95649.66;4362104;32;20216;-75
2021/06/17 04:10:37;;;;;;;4.53;4.10;;;;;;;17.12;83.88;95653.78;4364857;32;20233;-75
2021/06/17 04:13:03;;;;;;;5.78;3.83;;;;;;;17.11;82.75;95646.09;4359906;32;20217;-76
2021/06/17 04:15:31;;;;;;;4.87;4.37;;;;;;;17.04;83.69;95648.41;4361033;32;20211;-74
2021/06/17 04:17:59;;;;;;;6.37;4.20;;;;;;;17.09;83.02;95648.00;4363836;32;20214;-76
2021/06/17 04:20:28;;;;;;;6.00;4.43;;;;;;;17.07;84.08;95661.22;4357436;32;20246;-75
2021/06/17 04:22:55;;;;;;;5.20;4.12;;;;;;;17.16;84.60;95657.78;4362197;32;20314;-76
2021/06/17 04:25:22;;;;;;;7.80;5.00;;;;;;;17.29;84.49;95654.06;4357325;32;20219;-75
2021/06/17 04:27:49;;;;;;;6.35;4.87;;;;;;;17.44;83.87;95659.69;4360416;32;20295;-74
2021/06/17 04:30:18;;;;;;;5.03;4.00;;;;;;;17.56;83.11;95658.53;4361333;32;20270;-74
2021/06/17 04:32:46;;;;;;;5.30;4.10;;;;;;;17.64;82.53;95664.72;4356883;32;20256;-75
2021/06/17 04:35:14;;;;;;;7.03;4.22;;;;;;;17.67;83.71;95659.19;4355690;32;20215;-75
2021/06/17 04:37:40;;;;;;;10.57;4.28;;;;;;;17.77;82.71;95658.38;4352380;32;20591;-75
2021/06/17 04:40:08;;;;;;;5.22;4.55;;;;;;;17.95;82.74;95661.91;4364941;32;20260;-74
2021/06/17 04:42:34;;;;;;;5.20;4.45;;;;;;;18.14;81.66;95666.22;4363672;32;20636;-75
2021/06/17 04:45:00;;;;;;;5.97;4.68;;;;;;;18.03;82.24;95663.78;4371424;32;20211;-74
2021/06/17 04:47:26;;;;;;;6.07;4.82;;;;;;;18.02;82.18;95667.38;4369238;32;20215;-74
2021/06/17 04:49:51;;;;;;;7.43;4.93;;;;;;;18.02;83.12;95662.97;4366068;32;20294;-75
2021/06/17 04:52:24;;;;;;;8.33;5.43;;;;;;;18.01;84.48;95673.59;4372645;32;20226;-75
2021/06/17 04:54:49;;;;;;;6.25;4.75;;;;;;;18.17;83.28;95658.06;4372561;32;20211;-74
2021/06/17 04:57:14;;;;;;;7.35;5.60;;;;;;;18.24;83.20;95664.34;4372251;32;20283;-74
2021/06/17 04:59:40;;;;;;;6.00;5.10;;;;;;;18.37;84.13;95656.16;4372538;32;20214;-74
2021/06/17 05:02:05;;;;;;;8.17;4.97;;;;;;;18.35;85.45;95656.31;4358979;32;20289;-74
2021/06/17 05:04:31;;;;;;;5.68;5.05;;;;;;;18.45;84.67;95652.81;4372552;32;20241;-75
2021/06/17 05:07:10;;;;;;;4.57;4.13;;;;;;;18.52;81.54;95651.25;4358442;32;20254;-75
2021/06/17 05:12:21;;;;;;;7.22;4.75;;;;;;;18.64;77.07;95652.66;4358009;32;20259;-76
2021/06/17 05:14:46;;;;;;;6.20;4.17;;;;;;;18.66;76.33;95655.16;4356729;33;20224;-75
2021/06/17 05:17:12;;;;;;;5.17;4.33;;;;;;;18.65;76.50;95654.34;4357047;33;20682;-74
2021/06/17 05:19:37;;;;;;;11.10;4.70;;;;;;;18.75;75.90;95651.66;4357841;33;20213;-75
2021/06/17 05:22:03;;;;;;;8.73;4.37;;;;;;;18.92;75.62;95653.47;4357109;33;20613;-75
2021/06/17 05:24:29;;;;;;;6.00;4.25;;;;;;;19.12;74.31;95656.75;4356930;33;20302;-74
2021/06/17 05:26:56;;;;;;;6.17;4.30;;;;;;;19.19;73.34;95655.16;4354231;33;20232;-74
2021/06/17 05:29:21;;;;;;;5.12;4.20;;;;;;;19.06;73.15;95658.19;4357656;33;20233;-75
2021/06/17 05:31:47;;;;;;;5.20;4.30;;;;;;;19.31;72.86;95655.75;4357303;33;20240;-76
2021/06/17 05:34:12;;;;;;;4.60;3.75;;;;;;;19.56;72.40;95654.94;4343182;33;20282;-75
2021/06/17 05:36:38;;;;;;;5.87;4.23;;;;;;;19.74;71.36;95662.00;4343399;33;20316;-75
2021/06/17 05:39:04;;;;;;;7.57;4.23;;;;;;;19.86;69.76;95655.47;4357589;33;20802;-76
2021/06/17 05:41:30;;;;;;;6.45;4.07;;;;;;;20.03;69.71;95662.47;4343210;33;20666;-75
2021/06/17 05:43:57;;;;;;;6.80;4.30;;;;;;;20.13;69.44;95664.16;4357300;33;20244;-72
2021/06/17 05:46:22;;;;;;;4.13;3.70;;;;;;;20.30;69.40;95665.88;4356902;33;20596;-76
2021/06/17 05:48:47;;;;;;;6.77;4.13;;;;;;;20.43;69.20;95661.00;4357310;33;20299;-75
2021/06/17 05:51:13;;;;;;;6.32;4.43;;;;;;;20.54;67.04;95660.72;4357213;33;20303;-75
2021/06/17 05:53:38;;;;;;;7.07;4.10;;;;;;;20.33;67.30;95668.19;4357386;33;20209;-75
2021/06/17 05:56:04;;;;;;;6.15;4.22;;;;;;;20.34;67.72;95666.38;4343718;33;20297;-75
2021/06/17 05:58:30;;;;;;;6.75;4.40;;;;;;;20.31;67.71;95672.78;4353500;32;20221;-75
2021/06/17 06:00:57;;;;;;;6.72;3.87;;;;;;;20.36;67.93;95669.66;4360117;32;20604;-75
2021/06/17 06:03:22;;;;;;;6.45;3.75;;;;;;;20.51;66.76;95657.59;4359914;33;20221;-75
2021/06/17 06:05:48;;;;;;;5.57;3.67;;;;;;;20.73;66.13;95661.44;4355030;33;20305;-75
2021/06/17 06:08:14;;;;;;;4.87;3.67;;;;;;;20.82;64.89;95663.09;4349413;32;20920;-75
2021/06/17 06:10:40;;;;;;;4.85;3.33;;;;;;;21.01;64.04;95660.12;4362553;32;20225;-74
2021/06/17 06:13:06;;;;;;;5.87;3.62;;;;;;;21.42;62.29;95664.63;4360083;32;20621;-75
2021/06/17 06:15:34;;;;;;;5.93;3.50;;;;;;;21.68;61.21;95667.06;4357654;33;20343;-74
2021/06/17 06:18:06;;;;;;;5.12;3.75;;;;;;;21.59;60.65;95668.09;4366656;32;20213;-75
2021/06/17 06:20:32;;;;;;;8.70;3.72;;;;;;;21.75;60.92;95670.69;4369989;32;20612;-74
2021/06/17 06:22:57;;;;;;;5.47;3.80;;;;;;;21.97;60.60;95674.41;4358345;33;20282;-75
2021/06/17 06:25:22;;;;;;;5.27;3.40;;;;;;;22.33;59.94;95679.28;4359654;32;20682;-75
2021/06/17 06:27:48;;;;;;;6.27;3.30;;;;;;;22.61;58.20;95667.25;4359095;33;20294;-74
2021/06/17 06:30:14;;;;;;;3.40;3.10;;;;;;;22.68;57.67;95677.97;4360001;32;20616;-75
2021/06/17 06:32:39;;;;;;;6.90;3.90;;;;;;;22.75;57.81;95676.28;4359784;32;20224;-75
2021/06/17 06:35:07;;;;;;;5.70;3.50;;;;;;;23.13;58.15;95681.66;4359404;33;20212;-75
2021/06/17 06:37:33;;;;;;;6.07;3.40;;;;;;;23.48;58.38;95684.72;4360953;33;20371;-76
2021/06/17 06:39:58;;;;;;;4.90;3.60;;;;;;;23.71;55.90;95688.16;4360634;32;20263;-76
2021/06/17 06:42:23;;;;;;;4.83;3.40;;;;;;;23.53;55.76;95687.63;4360374;32;20347;-75
2021/06/17 06:44:49;;;;;;;13.83;8.07;;;;;;;23.64;55.62;95689.84;4360926;33;20224;-75
2021/06/17 06:47:14;;;;;;;4.70;3.40;;;;;;;23.97;57.41;95690.38;4346057;33;20266;-73
2021/06/17 06:49:40;;;;;;;4.17;2.87;;;;;;;24.35;56.08;95693.75;4359460;33;20279;-75
2021/06/17 06:52:06;;;;;;;5.57;3.17;;;;;;;24.20;54.01;95695.59;4346156;33;20217;-76
2021/06/17 06:54:32;;;;;;;6.12;2.90;;;;;;;24.26;53.46;95700.16;4359398;32;20247;-71
2021/06/17 06:56:57;;;;;;;4.47;3.08;;;;;;;24.50;53.85;95701.72;4358684;32;20225;-76
2021/06/17 06:59:23;;;;;;;5.07;3.30;;;;;;;24.79;53.74;95700.84;4345758;33;20268;-75
2021/06/17 07:01:49;;;;;;;17.40;3.65;;;;;;;25.10;51.03;95697.13;4359277;33;20287;-74
2021/06/17 07:04:14;;;;;;;4.35;2.85;;;;;;;25.37;51.40;95698.22;4359012;33;20221;-74
2021/06/17 07:06:41;;;;;;;5.63;3.03;;;;;;;25.65;47.68;95697.44;4358945;32;20625;-74
2021/06/17 07:09:08;;;;;;;3.67;2.87;;;;;;;25.89;46.22;95696.25;4354961;32;20267;-74
2021/06/17 07:11:34;;;;;;;4.47;3.30;;;;;;;26.20;44.60;95690.50;4363028;32;20519;-74
2021/06/17 07:13:59;;;;;;;4.12;2.53;;;;;;;26.19;44.28;95683.56;4346901;32;20285;-75
2021/06/17 07:16:25;;;;;;;3.10;2.50;;;;;;;26.30;43.87;95694.47;4366535;32;20564;-75
2021/06/17 07:18:51;;;;;;;3.50;2.45;;;;;;;26.61;43.56;95690.53;4371648;32;20238;-75
2021/06/17 07:21:17;;;;;;;8.00;2.40;;;;;;;26.80;47.38;95688.97;4373918;32;20216;-75
2021/06/17 07:23:45;;;;;;;4.57;2.43;;;;;;;27.02;43.34;95687.00;4360202;32;20661;-74
2021/06/17 07:26:12;;;;;;;18.27;8.43;;;;;;;27.15;42.31;95689.72;4369699;32;20258;-75
2021/06/17 07:28:37;;;;;;;6.57;2.72;;;;;;;26.95;42.54;95686.97;4368475;32;20422;-76
2021/06/17 07:31:02;;;;;;;5.40;2.90;;;;;;;26.82;40.82;95680.81;4358848;32;20252;-75
2021/06/17 07:33:28;;;;;;;6.87;2.57;;;;;;;27.06;41.85;95684.75;4362966;32;20227;-76
2021/06/17 07:35:53;;;;;;;6.87;2.67;;;;;;;27.28;42.16;95675.62;4373031;32;20216;-75
2021/06/17 07:38:19;;;;;;;3.73;2.37;;;;;;;27.59;40.79;95677.72;4373701;32;20246;-75
2021/06/17 07:40:44;;;;;;;5.57;2.60;;;;;;;27.32;41.53;95673.38;4368882;32;20225;-75
2021/06/17 07:43:11;;;;;;;9.03;2.63;;;;;;;27.18;42.55;95673.38;4358444;33;20212;-75
2021/06/17 07:45:37;;;;;;;7.90;2.40;;;;;;;27.02;43.81;95671.87;4358245;33;20316;-75
2021/06/17 07:48:03;;;;;;;5.72;2.35;;;;;;;27.02;44.01;95676.38;4358525;33;20287;-75
2021/06/17 07:50:29;;;;;;;6.87;3.08;;;;;;;27.00;43.62;95686.41;4345041;33;20512;-76
2021/06/17 07:52:54;;;;;;;5.00;2.58;;;;;;;26.94;44.71;95676.56;4358460;33;20331;-76
2021/06/17 07:55:20;;;;;;;3.57;2.47;;;;;;;26.92;44.03;95679.44;4358154;33;20213;-76
2021/06/17 07:57:45;;;;;;;6.07;2.47;;;;;;;26.85;43.60;95688.41;4358393;33;20217;-76
2021/06/17 08:00:13;;;;;;;5.83;2.50;;;;;;;26.90;44.21;95678.78;4364731;32;20550;-75
2021/06/17 08:02:39;;;;;;;6.75;2.53;;;;;;;27.18;42.41;95681.38;4358569;32;20266;-75
2021/06/17 08:05:05;;;;;;;4.68;2.78;;;;;;;27.04;43.47;95671.69;4358283;33;20292;-75
2021/06/17 08:07:30;;;;;;;5.30;2.60;;;;;;;27.33;43.73;95685.66;4356558;33;20582;-75
2021/06/17 08:09:56;;;;;;;5.83;2.47;;;;;;;27.62;42.54;95681.78;4358315;32;20258;-75
2021/06/17 08:12:23;;;;;;;2.87;2.22;;;;;;;27.68;40.70;95681.78;4357913;32;20247;-76
2021/06/17 08:14:48;;;;;;;4.78;2.53;;;;;;;28.36;39.50;95681.50;4358146;33;20208;-76
2021/06/17 08:17:15;;;;;;;4.27;2.50;;;;;;;28.65;39.20;95682.88;4357386;33;20216;-75
2021/06/17 08:19:40;;;;;;;4.10;2.00;;;;;;;29.01;40.94;95683.38;4358367;32;20300;-74
2021/06/17 08:22:07;;;;;;;4.47;2.10;;;;;;;29.40;36.80;95668.94;4369221;32;20247;-75
2021/06/17 08:24:36;;;;;;;7.15;2.60;;;;;;;29.67;35.85;95666.94;4357429;32;20250;-76
2021/06/17 08:27:02;;;;;;;4.82;2.40;;;;;;;29.59;35.40;95667.19;4357506;33;20229;-76
2021/06/17 08:29:28;;;;;;;5.40;2.45;;;;;;;29.19;35.72;95675.47;4358256;32;20584;-75
2021/06/17 08:31:53;;;;;;;4.53;2.40;;;;;;;28.92;33.75;95675.59;4357917;33;20395;-76
2021/06/17 08:34:20;;;;;;;9.38;2.50;;;;;;;29.14;36.22;95680.63;4369433;32;20243;-76
2021/06/17 08:36:45;;;;;;;3.10;1.80;;;;;;;29.08;35.31;95692.16;4357455;32;20217;-76
2021/06/17 08:39:11;;;;;;;3.20;2.10;;;;;;;29.02;36.23;95693.81;4357452;32;20266;-76
2021/06/17 08:41:36;;;;;;;4.60;2.20;;;;;;;28.46;36.57;95700.56;4357205;33;20217;-76
2021/06/17 08:44:02;;;;;;;4.68;2.12;;;;;;;27.93;37.08;95702.50;4357976;32;20221;-77
2021/06/17 08:46:28;;;;;;;2.90;2.00;;;;;;;27.69;36.68;95702.06;4344897;33;20240;-76
2021/06/17 08:48:53;;;;;;;4.87;1.97;;;;;;;27.43;38.95;95710.03;4359603;32;20579;-76
2021/06/17 08:51:20;;;;;;;2.73;2.10;;;;;;;27.49;37.46;95699.38;4358735;32;20221;-76
2021/06/17 08:53:48;;;;;;;2.40;2.00;;;;;;;27.99;35.86;95699.00;4356259;32;20220;-76
2021/06/17 08:56:14;;;;;;;3.50;1.98;;;;;;;28.52;37.74;95698.12;4372342;32;20242;-76
2021/06/17 08:58:39;;;;;;;6.43;2.30;;;;;;;29.29;37.87;95699.00;4371393;32;20618;-75
2021/06/17 09:01:09;;;;;;;4.67;2.07;;;;;;;29.94;36.38;95696.88;4364137;32;20227;-76
2021/06/17 09:03:38;;;;;;;3.15;2.22;;;;;;;30.36;37.16;95691.78;4368351;32;20661;-76
2021/06/17 09:06:04;;;;;;;3.12;2.10;;;;;;;30.66;35.82;95689.16;4359159;32;20264;-75
2021/06/17 09:08:33;;;;;;;6.70;2.22;;;;;;;30.88;36.21;95681.53;4367755;32;20213;-76
2021/06/17 09:10:59;;;;;;;3.85;2.00;;;;;;;31.06;35.83;95697.53;4343676;33;20250;-75
2021/06/17 09:13:28;;;;;;;3.12;1.92;;;;;;;31.03;33.47;95699.84;4357857;32;20339;-75
2021/06/17 09:15:55;;;;;;;3.80;2.60;;;;;;;31.28;37.22;95707.75;4357220;33;20287;-75
2021/06/17 09:18:23;;;;;;;7.82;2.90;;;;;;;30.99;35.91;95717.41;4356967;33;20220;-75
2021/06/17 09:20:52;;;;;;;4.20;2.70;;;;;;;29.71;36.75;95713.53;4354983;32;20299;-75
2021/06/17 09:23:32;;;;;;;7.18;2.60;;;;;;;29.95;37.50;95717.22;4352337;32;20219;-76
2021/06/17 09:25:59;;;;;;;6.50;2.95;;;;;;;30.56;39.96;95718.31;4372250;32;20215;-75
2021/06/17 09:28:26;;;;;;;5.87;3.10;;;;;;;30.81;38.09;95712.88;4358604;32;20234;-75
2021/06/17 09:30:52;;;;;;;4.90;3.03;;;;;;;30.62;37.59;95720.88;4372447;32;20220;-76
2021/06/17 09:33:17;;;;;;;4.33;3.07;;;;;;;30.33;41.62;95710.91;4372302;32;20517;-76
2021/06/17 09:35:51;;;;;;;4.03;2.50;;;;;;;30.13;34.92;95717.25;4373727;32;20617;-75
2021/06/17 09:38:16;;;;;;;5.90;2.80;;;;;;;30.19;38.82;95709.44;4375058;32;20276;-76
2021/06/17 09:40:50;;;;;;;7.10;3.75;;;;;;;30.89;37.43;95717.94;4373858;32;20308;-75
2021/06/17 09:43:18;;;;;;;4.85;4.32;;;;;;;30.02;36.53;95720.62;4365621;33;20247;-75
2021/06/17 09:45:54;;;;;;;4.37;3.78;;;;;;;29.91;38.88;95724.03;4363956;33;20248;-75
2021/06/17 09:48:42;;;;;;;5.82;4.10;;;;;;;29.77;39.08;95723.31;4360975;33;20270;-76
2021/06/17 09:51:28;;;;;;;4.22;3.80;;;;;;;29.57;39.70;95733.28;4360358;33;20216;-75
2021/06/17 09:54:06;;;;;;;8.80;4.10;;;;;;;29.70;37.70;95733.22;4358417;32;20259;-75
2021/06/17 09:56:35;;;;;;;4.45;3.97;;;;;;;29.32;38.02;95736.72;4368423;32;20238;-75
2021/06/17 09:59:00;;;;;;;6.03;4.07;;;;;;;29.60;39.04;95733.72;4356388;32;20615;-75
2021/06/17 10:01:31;;;;;;;6.90;4.10;;;;;;;30.30;37.28;95730.09;4368599;32;20287;-75
2021/06/17 10:04:02;;;;;;;4.80;4.00;;;;;;;30.66;36.81;95728.47;4364177;32;20231;-76
2021/06/17 10:06:28;;;;;;;5.40;3.85;;;;;;;30.55;36.53;95730.81;4337988;33;20253;-78
2021/06/17 10:08:54;;;;;;;5.40;3.58;;;;;;;30.81;36.83;95724.38;4367900;32;20243;-78
2021/06/17 10:11:21;;;;;;;4.10;3.42;;;;;;;30.82;35.05;95717.22;4363178;32;20212;-78
2021/06/17 10:13:48;;;;;;;6.78;3.47;;;;;;;30.49;37.51;95710.34;4367714;32;20223;-77
2021/06/17 10:16:17;;;;;;;6.50;3.50;;;;;;;30.91;35.66;95718.53;4367948;32;20215;-78
2021/06/17 10:18:43;;;;;;;6.47;3.97;;;;;;;30.56;35.79;95719.13;4368114;32;20263;-77
2021/06/17 10:21:12;;;;;;;6.67;3.37;;;;;;;30.28;35.32;95716.94;4380374;32;20777;-77
2021/06/17 10:23:38;;;;;;;8.17;3.80;;;;;;;30.76;35.51;95710.87;4366147;33;20221;-78
2021/06/17 10:26:05;;;;;;;4.23;3.50;;;;;;;30.59;35.45;95718.69;4352705;33;20667;-77
2021/06/17 10:28:39;;;;;;;4.97;3.67;;;;;;;30.46;37.45;95720.66;4353723;33;20213;-77
2021/06/17 10:31:06;;;;;;;4.72;3.42;;;;;;;30.35;36.69;95712.34;4366006;32;20217;-77
2021/06/17 10:33:34;;;;;;;4.07;3.33;;;;;;;30.37;34.96;95720.97;4368024;32;20225;-76
2021/06/17 10:36:24;;;;;;;4.50;3.17;;;;;;;30.54;35.89;95718.50;4367905;33;20237;-78
2021/06/17 10:39:13;;;;;;;5.13;3.50;;;;;;;31.50;34.97;95721.47;4358439;33;20307;-79
2021/06/17 10:42:15;;;;;;;6.97;3.47;;;;;;;32.09;34.60;95718.91;4372665;32;20277;-77
2021/06/17 10:44:49;;;;;;;6.37;3.70;;;;;;;32.11;32.59;95712.25;4371903;32;20209;-78
2021/06/17 10:48:01;;;;;;;5.43;3.30;;;;;;;31.92;32.93;95708.06;4367577;32;20616;-78
2021/06/17 10:51:05;;;;;;;5.12;3.60;;;;;;;32.54;32.37;95716.47;4369113;33;20248;-77
2021/06/17 10:53:53;;;;;;;5.62;3.45;;;;;;;32.46;31.80;95704.25;4369092;33;20213;-78
2021/06/17 10:56:26;;;;;;;4.32;3.12;;;;;;;32.41;35.49;95709.50;4369383;33;20212;-76
2021/06/17 10:58:58;;;;;;;3.53;2.90;;;;;;;32.40;31.96;95697.13;4365955;33;20280;-77
2021/06/17 11:01:29;;;;;;;4.97;3.20;;;;;;;32.45;32.14;95697.25;4360462;33;20557;-77
2021/06/17 11:04:00;;;;;;;5.22;3.40;;;;;;;32.66;33.15;95700.34;4360729;33;20247;-75
2021/06/17 11:06:59;;;;;;;4.40;3.08;;;;;;;32.47;32.90;95702.37;4359140;32;20247;-76
2021/06/17 11:09:47;;;;;;;4.30;3.22;;;;;;;32.11;31.87;95698.03;4359348;33;20251;-75
2021/06/17 11:13:02;;;;;;;9.15;3.60;;;;;;;32.17;34.42;95699.81;4358693;33;20678;-75
2021/06/17 11:15:42;;;;;;;5.25;3.28;;;;;;;32.60;35.66;95701.31;4359015;33;20233;-75
2021/06/17 11:18:08;;;;;;;4.25;2.90;;;;;;;32.28;33.18;95693.63;4359194;33;20217;-76
2021/06/17 11:20:36;;;;;;;5.53;3.50;;;;;;;32.33;37.56;95696.41;4345820;33;20287;-76
2021/06/17 11:23:02;;;;;;;4.93;3.17;;;;;;;32.67;34.94;95697.44;4358667;33;20587;-75
2021/06/17 11:25:30;;;;;;;3.87;3.10;;;;;;;32.37;32.84;95689.53;4358772;33;20225;-75
2021/06/17 11:27:58;;;;;;;4.47;3.15;;;;;;;32.38;34.76;95688.50;4358623;33;20225;-75
2021/06/17 11:31:02;;;;;;;5.40;3.35;;;;;;;32.09;33.18;95682.22;4358970;33;20578;-75
2021/06/17 11:33:35;;;;;;;5.82;3.20;;;;;;;32.39;40.59;95684.75;4358834;33;20351;-75
2021/06/17 11:36:04;;;;;;;4.18;3.30;;;;;;;32.36;37.28;95687.09;4358853;33;20251;-75
2021/06/17 11:38:32;;;;;;;4.90;3.20;;;;;;;31.95;36.53;95678.94;4345134;33;20271;-75
2021/06/17 11:41:08;;;;;;;4.60;3.60;;;;;;;31.74;39.14;95680.31;4358482;33;20264;-74
2021/06/17 11:43:33;;;;;;;4.00;2.90;;;;;;;31.68;40.85;95673.19;4358892;33;20261;-75